Flight Track Log - Related Links

Times and Time Zones

All times are in EDT time to prevent confusion due to time zone crossing. See the DAL6232 flight status page for this flight to view local times or setup timezone preferences in your user account.


Time Position Orientation Groundspeed Altitude Reporting Facility
EDT Latitude Longitude Course Direction KTS MPH feet Rate Location/Type
Sun 10:51:50 AM 44.8167 -63.5500 270° West 200 230 3,700  Level Moncton Center
Sun 10:52:50 AM 44.8000 -63.6500 257° West 240 276 6,500 2,850 Climbing Moncton Center
Sun 10:53:50 AM 44.8000 -63.7333 270° West 280 322 9,400 2,550 Climbing Moncton Center
Sun 10:54:50 AM 44.7833 -63.8500 259° West 290 334 11,600 2,000 Climbing Moncton Center
Sun 10:55:50 AM 44.7833 -64.0000 270° West 340 391 13,400 1,950 Climbing Moncton Center
Sun 10:56:50 AM 44.7667 -64.1333 260° West 370 426 15,500 2,200 Climbing Moncton Center
Sun 10:57:00 AM 44.8834 -64.5750 270° West  Level FlightAware Approximate
Sun 10:57:50 AM 44.7667 -64.3000 270° West 380 437 17,800  Level Moncton Center
Sun 10:58:50 AM 44.7833 -64.4500 279° West 390 449 19,400 1,900 Climbing Moncton Center
Sun 10:59:50 AM 44.7833 -64.6167 270° West 400 460 21,600 2,050 Climbing Moncton Center
Sun 11:00:50 AM 44.7667 -64.7500 260° West 400 460 23,500 1,650 Climbing Moncton Center
Sun 11:01:50 AM 44.7333 -64.8833 251° West 400 460 24,900 1,200 Climbing Moncton Center
Sun 11:02:50 AM 44.7000 -65.0833 257° West 420 483 25,900 1,000 Climbing Moncton Center
Sun 11:03:50 AM 44.6667 -65.2500 254° West 440 506 26,900 1,000 Climbing Moncton Center
Sun 11:04:50 AM 44.6500 -65.4000 261° West 460 529 27,900 1,000 Climbing Moncton Center
Sun 11:05:50 AM 44.6167 -65.6000 257° West 460 529 28,900 1,000 Climbing Moncton Center
Sun 11:06:50 AM 44.5833 -65.7667 254° West 460 529 29,900 1,050 Climbing Moncton Center
Sun 11:07:50 AM 44.5500 -65.9500 256° West 460 529 31,000 1,000 Climbing Moncton Center
Sun 11:08:50 AM 44.5000 -66.1167 247° West 460 529 31,900 950 Climbing Moncton Center
Sun 11:09:50 AM 44.4833 -66.2667 261° West 460 529 32,900 1,050 Climbing Moncton Center
Sun 11:10:50 AM 44.4500 -66.4500 256° West 460 529 34,000 1,000 Climbing Moncton Center
Sun 11:11:50 AM 44.4167 -66.6167 254° West 460 529 34,900 1,000 Climbing Moncton Center
Sun 11:12:50 AM 44.3833 -66.8000 256° West 460 529 36,000 1,050 Climbing Moncton Center
Sun 11:13:50 AM 44.3333 -66.9667 247° West 450 518 37,000 1,000 Climbing Moncton Center
Sun 11:14:50 AM 44.3000 -67.1333 254° West 450 518 38,000 500 Climbing Moncton Center
Sun 11:15:50 AM 44.2833 -67.3000 262° West 450 518 38,000  Level Moncton Center
Sun 11:16:38 AM 44.2592 -67.4472 257° West 464 534 38,000  Level Boston Center
Sun 11:17:38 AM 44.2231 -67.6242 254° West 470 541 38,000  Level Boston Center
Sun 11:18:38 AM 44.1886 -67.8008 255° West 475 547 38,000  Level Boston Center
Sun 11:19:38 AM 44.1497 -67.9778 253° West 475 547 38,000  Level Boston Center
Sun 11:20:38 AM 44.1128 -68.1597 254° West 480 552 38,000  Level Boston Center
Sun 11:21:38 AM 44.0753 -68.3303 253° West 485 558 38,000  Level Boston Center
Sun 11:22:38 AM 44.0378 -68.5119 254° West 485 558 38,000  Level Boston Center
Sun 11:23:38 AM 44.0072 -68.6525 253° West 485 558 38,000  Level Boston Center
Sun 11:24:38 AM 43.9597 -68.8661 253° West 485 558 38,000  Level Boston Center
Sun 11:25:38 AM 43.9214 -69.0444 253° West 485 558 38,000  Level Boston Center
Sun 11:26:38 AM 43.8808 -69.2253 253° West 485 558 38,000  Level Boston Center
Sun 11:27:38 AM 43.8419 -69.4031 253° West 485 558 38,000  Level Boston Center
Sun 11:28:38 AM 43.8006 -69.5836 252° West 485 558 38,000  Level Boston Center
Sun 11:29:38 AM 43.7592 -69.7608 252° West 485 558 38,000  Level Boston Center
Sun 11:30:38 AM 43.7194 -69.9378 253° West 485 558 38,000  Level Boston Center
Sun 11:31:38 AM 43.6811 -70.1003 252° West 485 558 38,000  Level Boston Center
Sun 11:32:38 AM 43.6369 -70.2969 253° West 490 564 38,000  Level Boston Center
Sun 11:33:38 AM 43.5944 -70.4764 252° West 485 558 38,000  Level Boston Center
Sun 11:34:38 AM 43.5536 -70.6553 253° West 491 565 38,000  Level Boston Center
Sun 11:35:38 AM 43.5125 -70.8342 252° West 491 565 38,000  Level Boston Center
Sun 11:36:38 AM 43.4669 -71.0156 251° West 496 571 38,000  Level Boston Center
Sun 11:37:38 AM 43.4211 -71.1967 251° West 496 571 38,000  Level Boston Center
Sun 11:38:38 AM 43.3811 -71.3775 253° West 504 580 38,000  Level Boston Center
Sun 11:39:38 AM 43.3328 -71.5581 250° West 499 574 38,000  Level Boston Center
Sun 11:40:38 AM 43.2861 -71.7383 250° West 504 580 38,000  Level Boston Center
Sun 11:41:38 AM 43.2433 -71.9186 252° West 504 580 38,000  Level Boston Center
Sun 11:42:38 AM 43.1961 -72.1011 251° West 510 587 38,000  Level Boston Center
Sun 11:43:38 AM 43.1506 -72.2808 251° West 510 587 38,000 -600 Level Boston Center
Sun 11:44:38 AM 43.1069 -72.4628 252° West 510 587 36,800 -1,400 Descending Boston Center
Sun 11:45:38 AM 43.0756 -72.6022 253° West 505 581 35,200 -2,000 Descending Boston Center
Sun 11:46:38 AM 43.0106 -72.8119 247° West 500 575 32,800 -2,200 Descending Boston Center
Sun 11:47:38 AM 42.9658 -72.9906 251° West 500 575 30,800 -1,900 Descending Boston Center
Sun 11:48:38 AM 42.9172 -73.1489 247° West 506 582 29,000 -1,900 Descending Boston Center
Sun 11:49:38 AM 42.7997 -73.2353 208° Southwest 474 545 27,000 -1,773 Descending Boston Center
Sun 11:50:50 AM 42.6703 -73.2844 196° South 454 522 25,100 -1,955 Descending Boston Center
Sun 11:51:50 AM 42.5219 -73.3303 193° South 464 534 22,700 -2,200 Descending Boston Center
Sun 11:52:50 AM 42.4028 -73.3819 198° South 464 534 20,700 -2,000 Descending Boston Center
Sun 11:53:50 AM 42.2919 -73.4197 194° South 422 486 18,700 -1,350 Descending Boston Center
Sun 11:54:50 AM 42.1894 -73.4600 196° South 418 481 18,000 -350 Descending Boston Center
Sun 11:55:50 AM 42.0931 -73.5283 208° Southwest 403 464 18,000  Level Boston Center
Sun 11:56:50 AM 41.9839 -73.6019 207° Southwest 395 455 18,000  Level Boston Center
Sun 11:57:50 AM 41.8958 -73.6617 207° Southwest 395 455 18,000 -300 Level Boston Center
Sun 11:58:50 AM 41.7886 -73.7375 208° Southwest 395 455 17,400 -900 Descending Boston Center
Sun 11:59:50 AM 41.7025 -73.7997 208° Southwest 395 455 16,200 -1,600 Descending Boston Center
Sun 12:00:50 PM 41.5850 -73.8444 196° South 400 460 14,200 -2,165 Descending Boston Center
Sun 12:02:03 PM 41.4667 -73.8667 188° South 324 373 11,400 -2,165 Descending New York TRACON
Sun 12:03:03 PM 41.4000 -73.8500 169° South 292 336 9,400 -1,200 Descending New York TRACON
Sun 12:04:03 PM 41.3333 -73.7833 143° Southeast 279 321 9,000 -700 Descending New York TRACON
Sun 12:05:03 PM 41.2667 -73.7333 151° Southeast 275 316 8,000 -900 Descending New York TRACON
Sun 12:06:03 PM 41.2000 -73.6833 151° Southeast 265 305 7,200 -1,300 Descending New York TRACON
Sun 12:07:03 PM 41.1500 -73.6167 135° Southeast 264 304 5,400 -1,600 Descending New York TRACON
Sun 12:08:03 PM 41.0833 -73.6333 191° South 276 318 4,000 -737 Descending New York TRACON
Sun 12:08:57 PM 41.0167 -73.6667 201° Southwest 275 316 4,000  Level New York TRACON
Sun 12:09:57 PM 40.9667 -73.7333 225° Southwest 267 307 4,000  Level New York TRACON
Sun 12:10:57 PM 40.9333 -73.8167 242° Southwest 281 323 4,000  Level New York TRACON
Sun 12:11:57 PM 40.8833 -73.9000 232° Southwest 277 319 4,000  Level New York TRACON
Sun 12:12:57 PM 40.8333 -73.9667 225° Southwest 270 311 4,000  Level New York TRACON
Sun 12:13:57 PM 40.7667 -74.0000 201° Southwest 266 306 4,000 -300 Level New York TRACON
Sun 12:14:57 PM 40.7000 -74.0500 210° Southwest 267 307 3,400 -550 Descending New York TRACON
Sun 12:15:57 PM 40.6333 -74.0833 201° Southwest 257 296 2,900 -316 Descending New York TRACON
Sun 12:16:51 PM 40.6167 -74.0167 108° East 229 264 2,800 -368 Descending New York TRACON
Sun 12:17:51 PM 40.6667 -73.9667 37° Northeast 216 249 2,200 -700 Descending New York TRACON
Sun 12:18:51 PM 40.7167 -73.9333 27° Northeast 165 190 1,400 -750 Descending New York TRACON
Sun 12:19:51 PM 40.7500 -73.9000 37° Northeast 123 142 700 -700 Descending New York TRACON

Login

Don't have an account? Register now (free) for customized features, flight alerts, and more!